Time;durP1;ratioP1;P1;durP2;ratioP2;P2;SDS_P1;SDS_P2;PMS_P1;PMS_P2;Temp;Humidity;BMP_temperature;BMP_pressure;BME280_temperature;BME280_humidity;BME280_pressure;Samples;Min_cycle;Max_cycle;Signal;HPM_P1;HPM_P2
2022/01/27 00:01:39;;;;;;;42.47;22.60;;;4.70;99.90;;;;;;5011114;28;20148;-78
2022/01/27 00:04:12;;;;;;;;;;;4.70;99.90;;;;;;5001500;28;20017;-79
2022/01/27 00:06:39;;;;;;;42.13;22.17;;;4.70;99.90;;;;;;4998898;28;19915;-78
2022/01/27 00:09:17;;;;;;;44.95;23.38;;;4.70;99.90;;;;;;5011030;28;20022;-79
2022/01/27 00:11:45;;;;;;;45.25;22.55;;;4.70;99.90;;;;;;5001222;28;20520;-78
2022/01/27 00:14:13;;;;;;;45.88;23.38;;;4.70;99.90;;;;;;5013218;28;20390;-79
2022/01/27 00:16:42;;;;;;;40.47;21.80;;;4.70;99.90;;;;;;5012759;28;20104;-79
2022/01/27 00:19:09;;;;;;;45.47;23.55;;;4.80;99.90;;;;;;5013696;28;20120;-78
2022/01/27 00:21:35;;;;;;;41.95;21.70;;;4.80;99.90;;;;;;5011541;28;20084;-78
2022/01/27 00:24:01;;;;;;;48.70;23.85;;;4.80;99.90;;;;;;5011729;28;20482;-78
2022/01/27 00:26:26;;;;;;;40.22;23.38;;;4.80;99.90;;;;;;5011476;28;20032;-77
2022/01/27 00:28:52;;;;;;;46.58;24.23;;;4.80;99.90;;;;;;5010477;28;20033;-78
2022/01/27 00:31:21;;;;;;;40.53;22.98;;;4.80;99.90;;;;;;5008871;28;20033;-79
2022/01/27 00:33:49;;;;;;;44.42;24.80;;;4.80;99.90;;;;;;5011424;28;20041;-78
2022/01/27 00:36:15;;;;;;;42.55;24.25;;;4.80;99.90;;;;;;5011131;28;20116;-77
2022/01/27 00:38:40;;;;;;;46.22;25.58;;;4.80;99.90;;;;;;5010375;28;20121;-79
2022/01/27 00:41:06;;;;;;;46.30;25.35;;;4.80;99.90;;;;;;5010264;28;20049;-80
2022/01/27 00:43:32;;;;;;;46.33;25.70;;;4.80;99.90;;;;;;5011240;28;20040;-78
2022/01/27 00:45:58;;;;;;;47.28;25.25;;;4.80;99.90;;;;;;5006802;28;20403;-78
2022/01/27 00:48:23;;;;;;;45.22;24.45;;;4.80;99.90;;;;;;5012168;28;20121;-79
2022/01/27 00:50:57;;;;;;;48.63;26.27;;;4.70;99.90;;;;;;5008953;28;20018;-79
2022/01/27 00:53:35;;;;;;;48.35;25.95;;;4.70;99.90;;;;;;5011829;28;20025;-78
2022/01/27 00:56:13;;;;;;;47.47;26.05;;;4.70;99.90;;;;;;5011934;28;20021;-78
2022/01/27 01:01:09;;;;;;;43.55;23.63;;;4.70;99.90;;;;;;5006596;28;20054;-79
2022/01/27 01:03:40;;;;;;;48.20;25.40;;;4.70;99.90;;;;;;5011751;28;20034;-78
2022/01/27 01:16:09;;;;;;;50.33;26.33;;;4.70;99.90;;;;;;5010475;28;20025;-79
2022/01/27 01:18:48;;;;;;;45.45;24.33;;;4.70;99.90;;;;;;5010263;28;20085;-78
2022/01/27 01:21:32;;;;;;;43.75;23.77;;;4.70;99.90;;;;;;5011526;28;20026;-78
2022/01/27 01:29:49;;;;;;;44.13;23.55;;;4.60;99.90;;;;;;4998499;28;20049;-78
2022/01/27 01:32:28;;;;;;;45.40;23.63;;;4.60;99.90;;;;;;5010659;28;20084;-79
2022/01/27 01:34:54;;;;;;;51.58;26.50;;;4.60;99.90;;;;;;5012148;28;20045;-78
2022/01/27 01:37:20;;;;;;;47.10;24.98;;;4.60;99.90;;;;;;5006237;28;20069;-79
2022/01/27 01:39:45;;;;;;;51.40;25.48;;;4.60;99.90;;;;;;5009504;28;20049;-78
2022/01/27 01:42:12;;;;;;;45.65;24.58;;;4.60;99.90;;;;;;5010837;28;20430;-78
2022/01/27 01:44:38;;;;;;;49.67;24.77;;;4.70;99.90;;;;;;5006279;28;20421;-78
2022/01/27 01:47:05;;;;;;;47.40;25.52;;;4.60;99.90;;;;;;5008370;28;20070;-79
2022/01/27 01:49:30;;;;;;;49.05;25.65;;;4.60;99.90;;;;;;5010928;28;20026;-78
2022/01/27 01:51:58;;;;;;;45.67;24.08;;;4.70;99.90;;;;;;5011385;28;20030;-79
2022/01/27 01:54:24;;;;;;;46.72;25.67;;;4.60;99.90;;;;;;5007157;28;20033;-79
2022/01/27 01:56:51;;;;;;;47.72;23.42;;;4.70;99.90;;;;;;5009998;28;20041;-78
2022/01/27 01:59:18;;;;;;;48.42;25.23;;;4.70;99.90;;;;;;5005848;28;20038;-78
2022/01/27 02:01:44;;;;;;;45.80;23.00;;;4.70;99.90;;;;;;5009518;28;20021;-79
2022/01/27 02:04:11;;;;;;;44.65;24.20;;;4.70;99.90;;;;;;5007716;28;20034;-79
2022/01/27 02:06:46;;;;;;;47.85;23.90;;;4.70;99.90;;;;;;5008303;28;20026;-79
2022/01/27 02:20:10;;;;;;;45.05;24.83;;;4.70;99.90;;;;;;5009287;28;20634;-77
2022/01/27 02:22:35;;;;;;;44.25;22.27;;;4.70;99.90;;;;;;5006121;28;20477;-77
2022/01/27 02:25:03;;;;;;;47.92;25.40;;;4.70;99.90;;;;;;5011475;28;20040;-77
2022/01/27 02:27:29;;;;;;;44.75;23.98;;;4.70;99.90;;;;;;5007516;28;20034;-76
2022/01/27 02:29:55;;;;;;;45.88;24.35;;;4.80;99.90;;;;;;5008011;28;20512;-77
2022/01/27 02:32:22;;;;;;;45.83;24.50;;;4.70;99.90;;;;;;5011164;28;20034;-77
2022/01/27 02:34:48;;;;;;;46.55;24.75;;;4.80;99.90;;;;;;5005626;28;20022;-77
2022/01/27 02:37:14;;;;;;;42.85;23.67;;;4.80;99.90;;;;;;5001675;28;20054;-77
2022/01/27 02:39:40;;;;;;;39.97;21.88;;;4.80;99.90;;;;;;5008543;28;20394;-77
2022/01/27 02:42:18;;;;;;;45.63;23.48;;;4.80;99.90;;;;;;5008341;28;20037;-77
2022/01/27 02:44:55;;;;;;;45.03;24.55;;;4.80;99.90;;;;;;5008612;28;20026;-77
2022/01/27 02:47:24;;;;;;;43.97;23.75;;;4.80;99.90;;;;;;5008859;28;20056;-77
2022/01/27 02:49:50;;;;;;;43.28;23.08;;;4.80;99.90;;;;;;5006244;28;20026;-77
2022/01/27 02:52:16;;;;;;;40.45;22.80;;;4.80;99.90;;;;;;5006741;28;20110;-77
2022/01/27 02:54:42;;;;;;;41.53;22.30;;;4.80;99.90;;;;;;5009861;28;20032;-77
2022/01/27 02:57:07;;;;;;;44.88;23.15;;;4.80;99.90;;;;;;5014435;28;20037;-77
2022/01/27 02:59:33;;;;;;;42.88;24.92;;;4.80;99.90;;;;;;5013676;28;20150;-77
2022/01/27 03:01:59;;;;;;;43.95;24.02;;;4.80;99.90;;;;;;5013845;28;20036;-77
2022/01/27 03:04:26;;;;;;;42.40;22.55;;;4.90;99.90;;;;;;5012767;28;20025;-77
2022/01/27 03:06:52;;;;;;;41.60;23.60;;;4.90;99.90;;;;;;5014284;28;20022;-77
2022/01/27 03:09:17;;;;;;;41.72;23.80;;;4.90;99.90;;;;;;5013828;28;20030;-77
2022/01/27 03:11:44;;;;;;;45.70;23.17;;;4.90;99.90;;;;;;5012764;28;20099;-77
2022/01/27 03:14:11;;;;;;;46.42;24.70;;;4.90;99.90;;;;;;5013514;28;20060;-77
2022/01/27 03:16:37;;;;;;;44.67;24.08;;;4.90;99.90;;;;;;5013553;28;20033;-77
2022/01/27 03:19:03;;;;;;;42.25;22.95;;;4.90;99.90;;;;;;5011067;28;20052;-77
2022/01/27 03:21:29;;;;;;;40.10;22.27;;;4.90;99.90;;;;;;5012282;28;20056;-77
2022/01/27 03:23:55;;;;;;;46.08;23.00;;;4.90;99.90;;;;;;5014760;28;20119;-77
2022/01/27 03:26:21;;;;;;;44.35;24.77;;;4.90;99.90;;;;;;5012764;28;20022;-77
2022/01/27 03:28:46;;;;;;;46.63;25.42;;;4.90;99.90;;;;;;5008423;28;20042;-77
2022/01/27 03:31:15;;;;;;;44.25;24.40;;;4.90;99.90;;;;;;5012064;28;20033;-77
2022/01/27 03:33:42;;;;;;;42.63;23.13;;;5.00;99.90;;;;;;5007870;28;20034;-77
2022/01/27 03:36:07;;;;;;;47.33;25.45;;;4.90;99.90;;;;;;5013332;28;20084;-77
2022/01/27 03:38:33;;;;;;;44.72;24.52;;;5.00;99.90;;;;;;5011014;28;20042;-77
2022/01/27 03:41:04;;;;;;;42.78;23.52;;;4.90;99.90;;;;;;5009976;28;20026;-77
2022/01/27 03:43:29;;;;;;;45.85;23.75;;;4.90;99.90;;;;;;5013263;28;20036;-77
2022/01/27 03:45:55;;;;;;;43.40;23.35;;;4.90;99.90;;;;;;5012041;28;20413;-77
2022/01/27 03:48:20;;;;;;;40.83;22.30;;;4.90;99.90;;;;;;5011793;28;20038;-77
2022/01/27 03:50:46;;;;;;;45.20;23.98;;;4.90;99.90;;;;;;5010613;28;20282;-77
2022/01/27 03:53:11;;;;;;;43.03;22.52;;;4.80;99.90;;;;;;5001083;28;20509;-78
2022/01/27 03:55:37;;;;;;;40.83;22.13;;;4.80;99.90;;;;;;5011666;28;20068;-78
2022/01/27 03:58:02;;;;;;;49.00;22.48;;;4.80;99.90;;;;;;5013532;28;20124;-78
2022/01/27 04:00:28;;;;;;;45.28;23.75;;;4.80;99.90;;;;;;5011208;28;20033;-78
2022/01/27 04:03:14;;;;;;;41.70;21.25;;;4.80;99.90;;;;;;5012512;28;20038;-78
2022/01/27 04:05:50;;;;;;;39.65;20.85;;;4.80;99.90;;;;;;5012669;28;20482;-78
2022/01/27 04:08:16;;;;;;;43.65;22.35;;;4.80;99.90;;;;;;5012940;28;20058;-78
2022/01/27 04:10:42;;;;;;;39.47;20.70;;;4.90;99.90;;;;;;5009589;28;20060;-78
2022/01/27 04:13:08;;;;;;;42.10;22.23;;;4.80;99.90;;;;;;5012431;28;20033;-78
2022/01/27 04:15:36;;;;;;;38.25;21.02;;;4.90;99.90;;;;;;5010164;28;20023;-78
2022/01/27 04:18:03;;;;;;;39.22;21.17;;;4.90;99.90;;;;;;5009580;28;20038;-78
2022/01/27 04:20:28;;;;;;;43.03;21.90;;;4.90;99.90;;;;;;5004440;28;20054;-77
2022/01/27 04:22:54;;;;;;;39.70;20.88;;;4.90;99.90;;;;;;5013438;28;20057;-78
2022/01/27 04:25:19;;;;;;;40.20;21.33;;;4.90;99.90;;;;;;5012375;28;20029;-78
2022/01/27 04:27:50;;;;;;;41.45;19.80;;;4.90;99.90;;;;;;5008112;28;20038;-78
2022/01/27 04:30:19;;;;;;;41.10;20.98;;;4.90;99.90;;;;;;5007673;28;21416;-79
2022/01/27 04:32:50;;;;;;;40.60;21.27;;;4.90;99.90;;;;;;5012846;28;20172;-78
2022/01/27 04:35:19;;;;;;;44.22;20.95;;;5.00;99.90;;;;;;5012575;28;20023;-80
2022/01/27 04:40:34;;;;;;;41.72;20.63;;;4.90;99.90;;;;;;5001460;28;20466;-78
2022/01/27 04:45:36;;;;;;;40.38;20.73;;;4.90;99.90;;;;;;5010223;28;20030;-78
2022/01/27 04:48:12;;;;;;;38.75;20.35;;;4.90;99.90;;;;;;5006563;28;20100;-78
2022/01/27 04:50:38;;;;;;;40.03;20.00;;;4.90;99.90;;;;;;5012553;28;20057;-78
2022/01/27 04:53:07;;;;;;;42.28;20.70;;;4.90;99.90;;;;;;5010817;28;20068;-78
2022/01/27 04:55:33;;;;;;;40.08;19.05;;;4.90;99.90;;;;;;5000463;28;20108;-78
2022/01/27 04:58:09;;;;;;;37.95;19.33;;;5.00;99.90;;;;;;5011799;28;20126;-78
2022/01/27 05:00:35;;;;;;;40.90;19.40;;;5.00;99.90;;;;;;5012214;28;20525;-78
2022/01/27 05:03:10;;;;;;;37.92;19.58;;;5.00;99.90;;;;;;5012164;28;20054;-78
2022/01/27 05:05:37;;;;;;;39.20;19.75;;;5.00;99.90;;;;;;5006729;28;20033;-78
2022/01/27 05:08:03;;;;;;;41.63;19.15;;;5.00;99.90;;;;;;5011646;28;20105;-79
2022/01/27 05:10:33;;;;;;;38.85;19.13;;;5.00;99.90;;;;;;5011423;28;20097;-78
2022/01/27 05:13:07;;;;;;;42.35;20.55;;;5.00;99.90;;;;;;5010917;28;20037;-79
2022/01/27 05:15:34;;;;;;;37.80;18.45;;;5.00;99.90;;;;;;5009094;28;20528;-78
2022/01/27 05:18:00;;;;;;;39.10;19.92;;;5.00;99.90;;;;;;5007009;28;20030;-78
2022/01/27 05:20:25;;;;;;;35.67;18.65;;;5.00;99.90;;;;;;5009825;28;20429;-78
2022/01/27 05:22:51;;;;;;;40.60;18.33;;;5.00;99.90;;;;;;5011612;28;20040;-78
2022/01/27 05:25:16;;;;;;;37.65;18.27;;;5.10;99.90;;;;;;5012565;28;20025;-78
2022/01/27 05:27:42;;;;;;;41.72;20.67;;;5.00;99.90;;;;;;5010271;28;20367;-78
2022/01/27 05:30:08;;;;;;;37.00;20.08;;;5.00;99.90;;;;;;5010778;28;20390;-79
2022/01/27 05:32:35;;;;;;;39.65;19.67;;;5.00;99.90;;;;;;4999071;28;20038;-79
2022/01/27 05:35:01;;;;;;;38.65;19.92;;;5.10;99.90;;;;;;5008648;28;20045;-79
2022/01/27 05:37:27;;;;;;;38.38;18.48;;;5.10;99.90;;;;;;5008500;28;20414;-78
2022/01/27 05:39:52;;;;;;;35.83;17.90;;;5.10;99.90;;;;;;5010443;28;20026;-78
2022/01/27 05:42:18;;;;;;;37.60;19.33;;;5.10;99.90;;;;;;5010245;28;20030;-79
2022/01/27 05:44:44;;;;;;;42.75;19.77;;;5.20;99.90;;;;;;5007705;28;20026;-78
2022/01/27 05:47:09;;;;;;;38.97;18.83;;;5.20;99.90;;;;;;5007631;28;20065;-78
2022/01/27 05:49:35;;;;;;;38.88;19.60;;;5.20;99.90;;;;;;5007601;28;20037;-78
2022/01/27 05:52:00;;;;;;;37.38;18.25;;;5.20;99.90;;;;;;5010018;28;20022;-79
2022/01/27 05:54:26;;;;;;;32.90;17.92;;;5.20;99.90;;;;;;5010257;28;20382;-79
2022/01/27 05:56:51;;;;;;;38.47;19.27;;;5.20;99.90;;;;;;5012280;28;20057;-78
2022/01/27 05:59:18;;;;;;;38.95;19.13;;;5.10;99.90;;;;;;5012044;28;20041;-79
2022/01/27 06:01:44;;;;;;;38.95;17.48;;;5.20;99.90;;;;;;5011040;28;20025;-79
2022/01/27 06:04:09;;;;;;;37.13;19.50;;;5.10;99.90;;;;;;5008088;28;20029;-78
2022/01/27 06:06:35;;;;;;;39.15;18.13;;;5.10;99.90;;;;;;5011583;28;20073;-78
2022/01/27 06:09:00;;;;;;;37.40;18.40;;;5.10;99.90;;;;;;5011474;28;20109;-79
2022/01/27 06:11:26;;;;;;;39.28;18.67;;;5.10;99.90;;;;;;5010851;28;20109;-78
2022/01/27 06:13:51;;;;;;;39.17;19.55;;;5.10;99.90;;;;;;5011865;28;20180;-79
2022/01/27 06:16:17;;;;;;;43.33;20.77;;;5.10;99.90;;;;;;5012524;28;20022;-79
2022/01/27 06:18:42;;;;;;;41.15;18.95;;;5.10;99.90;;;;;;5003789;28;20541;-79
2022/01/27 06:21:10;;;;;;;37.50;19.10;;;5.10;99.90;;;;;;5009627;28;20045;-78
2022/01/27 06:23:35;;;;;;;39.70;20.25;;;5.10;99.90;;;;;;5011057;28;20460;-78
2022/01/27 06:26:02;;;;;;;44.35;20.73;;;5.20;99.90;;;;;;5011304;28;20108;-78
2022/01/27 06:28:27;;;;;;;44.80;20.55;;;5.20;99.90;;;;;;5010506;28;20030;-80
2022/01/27 06:30:53;;;;;;;36.53;18.20;;;5.20;99.90;;;;;;5010173;28;20041;-79
2022/01/27 06:33:18;;;;;;;39.53;20.50;;;5.20;99.90;;;;;;5005725;28;20442;-79
2022/01/27 06:35:44;;;;;;;41.22;19.20;;;5.20;99.90;;;;;;5010607;28;20028;-79
2022/01/27 06:38:09;;;;;;;46.35;20.80;;;5.20;99.90;;;;;;5010111;28;20037;-78
2022/01/27 06:40:35;;;;;;;40.97;20.23;;;5.20;99.90;;;;;;5009933;28;20393;-79
2022/01/27 06:43:01;;;;;;;45.72;19.75;;;5.20;99.90;;;;;;5008355;28;20066;-78
2022/01/27 06:45:26;;;;;;;42.88;19.52;;;5.20;99.90;;;;;;5002794;28;20037;-80
2022/01/27 06:47:52;;;;;;;38.53;18.67;;;5.20;99.90;;;;;;5009304;28;20050;-80
2022/01/27 06:50:18;;;;;;;42.95;20.33;;;5.20;99.90;;;;;;5010367;28;20030;-79
2022/01/27 06:52:44;;;;;;;41.90;19.42;;;5.20;99.90;;;;;;5006954;28;20102;-80
2022/01/27 06:55:11;;;;;;;42.00;18.20;;;5.30;99.90;;;;;;4998382;28;20034;-80
2022/01/27 06:57:37;;;;;;;47.22;21.67;;;5.30;99.90;;;;;;5005982;28;20042;-79
2022/01/27 07:00:06;;;;;;;40.08;19.30;;;5.30;99.90;;;;;;5002508;28;20022;-81
2022/01/27 07:02:32;;;;;;;35.67;17.45;;;5.40;99.90;;;;;;5004148;28;20520;-81
2022/01/27 07:04:57;;;;;;;36.90;18.25;;;5.40;99.90;;;;;;4997443;28;20117;-82
2022/01/27 07:07:23;;;;;;;35.80;18.33;;;5.50;99.90;;;;;;4990981;28;20028;-82
2022/01/27 07:09:48;;;;;;;39.47;17.92;;;5.50;99.90;;;;;;5000375;28;20088;-80
2022/01/27 07:12:14;;;;;;;40.25;18.45;;;5.60;99.90;;;;;;5007378;28;20030;-81
2022/01/27 07:14:40;;;;;;;39.00;18.27;;;5.70;99.90;;;;;;5010805;28;20061;-82
2022/01/27 07:17:05;;;;;;;42.17;19.40;;;5.70;99.90;;;;;;5012011;28;20470;-82
2022/01/27 07:19:31;;;;;;;35.30;16.95;;;5.70;99.90;;;;;;5011829;28;20033;-82
2022/01/27 07:21:57;;;;;;;37.03;16.52;;;5.80;99.90;;;;;;5005106;28;20037;-80
2022/01/27 07:24:22;;;;;;;30.95;16.55;;;5.90;99.90;;;;;;5004203;28;20034;-82
2022/01/27 07:26:48;;;;;;;30.73;15.45;;;5.90;99.90;;;;;;5000776;28;20034;-82
2022/01/27 07:29:14;;;;;;;37.78;16.67;;;6.00;99.90;;;;;;5008523;28;20018;-82
2022/01/27 07:31:40;;;;;;;34.90;17.23;;;6.00;99.90;;;;;;5006368;28;20028;-82
2022/01/27 07:34:05;;;;;;;41.72;17.65;;;6.00;99.90;;;;;;5010002;28;20068;-82
2022/01/27 07:36:31;;;;;;;37.65;18.20;;;6.10;99.90;;;;;;5011344;28;20044;-82
2022/01/27 07:38:58;;;;;;;37.83;17.38;;;6.00;99.90;;;;;;5010544;28;20033;-81
2022/01/27 07:41:24;;;;;;;31.52;16.65;;;6.00;99.90;;;;;;4992326;28;20023;-81
2022/01/27 07:43:50;;;;;;;36.72;17.83;;;5.90;99.90;;;;;;5009764;28;20495;-78
2022/01/27 07:46:16;;;;;;;39.80;18.75;;;5.90;99.90;;;;;;5014347;28;20030;-78
2022/01/27 07:48:42;;;;;;;42.78;18.92;;;5.90;99.90;;;;;;5010491;28;20072;-78
2022/01/27 07:51:09;;;;;;;33.70;17.73;;;5.90;99.90;;;;;;4994726;28;20038;-78
2022/01/27 07:53:36;;;;;;;40.30;18.17;;;5.80;99.90;;;;;;5011607;28;20624;-78
2022/01/27 07:56:03;;;;;;;42.58;19.00;;;5.80;99.90;;;;;;5009167;28;20030;-78
2022/01/27 07:58:31;;;;;;;40.60;18.48;;;5.80;99.90;;;;;;5013340;28;20497;-78
2022/01/27 08:00:57;;;;;;;44.95;19.45;;;5.80;99.90;;;;;;5007076;28;20037;-78
2022/01/27 08:03:23;;;;;;;39.65;17.60;;;5.80;99.90;;;;;;5008320;28;20120;-79
2022/01/27 08:05:49;;;;;;;35.58;17.02;;;5.80;99.90;;;;;;5011539;28;20113;-79
2022/01/27 08:08:14;;;;;;;51.35;20.95;;;5.80;99.90;;;;;;5013076;28;20536;-78
2022/01/27 08:10:40;;;;;;;43.22;19.13;;;5.80;99.90;;;;;;5012156;28;20026;-79
2022/01/27 08:13:09;;;;;;;43.05;19.58;;;5.90;99.90;;;;;;5012972;28;20117;-79
2022/01/27 08:15:35;;;;;;;37.92;19.33;;;5.90;99.90;;;;;;5007354;28;20023;-78
2022/01/27 08:18:02;;;;;;;41.35;18.83;;;6.00;99.90;;;;;;5013917;28;20125;-78
2022/01/27 08:20:27;;;;;;;36.22;15.95;;;6.00;99.90;;;;;;5008407;28;20022;-79
2022/01/27 08:22:54;;;;;;;40.75;18.75;;;6.10;99.90;;;;;;5009500;28;20088;-79
2022/01/27 08:25:21;;;;;;;39.38;18.23;;;6.10;99.90;;;;;;5002236;28;20030;-79
2022/01/27 08:27:50;;;;;;;40.40;19.45;;;6.10;99.90;;;;;;5010779;28;20596;-79
2022/01/27 08:30:18;;;;;;;37.08;17.10;;;6.10;99.90;;;;;;5012147;28;20029;-78
2022/01/27 08:35:20;;;;;;;36.20;16.55;;;6.10;99.90;;;;;;5013176;28;20073;-79
2022/01/27 08:37:46;;;;;;;37.33;17.52;;;6.20;99.90;;;;;;5011254;28;20041;-79
2022/01/27 08:40:14;;;;;;;32.03;16.02;;;6.20;99.90;;;;;;5007847;28;20036;-78
2022/01/27 08:42:41;;;;;;;36.83;17.40;;;6.20;99.90;;;;;;5011835;28;20037;-79
2022/01/27 08:45:09;;;;;;;35.33;17.80;;;6.30;99.90;;;;;;5011657;28;20030;-79
2022/01/27 08:47:35;;;;;;;34.72;17.02;;;6.30;99.90;;;;;;5012819;28;20516;-79
2022/01/27 08:50:02;;;;;;;33.03;15.98;;;6.30;99.90;;;;;;5010824;28;20034;-79
2022/01/27 08:52:27;;;;;;;30.38;15.18;;;6.30;99.90;;;;;;5010675;28;20030;-79
2022/01/27 08:54:53;;;;;;;34.22;15.80;;;6.30;99.90;;;;;;5005606;28;20385;-78
2022/01/27 08:57:18;;;;;;;33.60;15.10;;;6.30;99.90;;;;;;5009072;28;20107;-78
2022/01/27 08:59:45;;;;;;;36.72;16.13;;;6.30;99.90;;;;;;5012121;28;20470;-78
2022/01/27 09:02:10;;;;;;;31.02;16.13;;;6.30;99.90;;;;;;5009875;28;20050;-78
2022/01/27 09:04:36;;;;;;;29.88;16.10;;;6.30;99.90;;;;;;5010394;28;20064;-78
2022/01/27 09:07:02;;;;;;;31.98;15.65;;;6.30;99.90;;;;;;5009981;28;20022;-79
2022/01/27 09:09:27;;;;;;;34.53;16.83;;;6.30;99.90;;;;;;5003615;28;20105;-78
2022/01/27 09:11:55;;;;;;;32.90;15.00;;;6.30;99.90;;;;;;5000422;28;20030;-78
2022/01/27 09:14:22;;;;;;;34.97;16.63;;;6.30;99.90;;;;;;5007439;28;20022;-78
2022/01/27 09:16:47;;;;;;;30.80;16.80;;;6.30;99.90;;;;;;5006259;28;20034;-78
2022/01/27 09:19:14;;;;;;;33.33;16.35;;;6.30;99.90;;;;;;5008624;28;20636;-78
2022/01/27 09:21:45;;;;;;;29.38;14.98;;;6.30;99.90;;;;;;5012223;28;20030;-78
2022/01/27 09:24:15;;;;;;;29.63;16.77;;;6.30;99.90;;;;;;5007838;28;20064;-79
2022/01/27 09:26:58;;;;;;;35.15;15.63;;;6.30;99.90;;;;;;5007120;28;20482;-77
2022/01/27 09:29:23;;;;;;;;;;;6.40;99.90;;;;;;5007515;28;20021;-78
2022/01/27 09:31:50;;;;;;;30.67;14.35;;;6.40;99.90;;;;;;5001594;28;20376;-78
2022/01/27 09:34:16;;;;;;;29.95;15.13;;;6.30;99.90;;;;;;5007373;28;20077;-79
2022/01/27 09:36:42;;;;;;;28.25;14.85;;;6.40;99.90;;;;;;5008734;28;20033;-78
2022/01/27 09:39:08;;;;;;;33.13;15.95;;;6.40;99.90;;;;;;5010249;28;20038;-78
2022/01/27 09:41:37;;;;;;;33.50;16.27;;;6.40;99.90;;;;;;5001964;28;20022;-78
2022/01/27 09:44:13;;;;;;;28.75;13.80;;;6.40;99.90;;;;;;5000797;28;20069;-78
2022/01/27 09:46:41;;;;;;;28.45;13.90;;;6.40;99.90;;;;;;5004162;28;20766;-77
2022/01/27 09:49:13;;;;;;;31.25;14.63;;;6.40;99.90;;;;;;5006025;28;20038;-79
2022/01/27 09:51:43;;;;;;;27.15;13.55;;;6.40;99.90;;;;;;5007016;28;20025;-78
2022/01/27 09:54:10;;;;;;;27.60;14.38;;;6.50;99.90;;;;;;5010480;28;20105;-77
2022/01/27 09:56:36;;;;;;;32.17;14.60;;;6.50;99.90;;;;;;5002937;28;20021;-78
2022/01/27 09:59:03;;;;;;;27.05;13.77;;;6.50;99.90;;;;;;5006424;28;22678;-78
2022/01/27 10:01:29;;;;;;;25.58;13.05;;;6.60;99.90;;;;;;5009812;28;20129;-78
2022/01/27 10:04:01;;;;;;;22.73;13.45;;;6.60;99.90;;;;;;5011593;28;20113;-78
2022/01/27 10:06:31;;;;;;;26.13;12.25;;;6.60;99.90;;;;;;4994807;28;20641;-78
2022/01/27 10:09:24;;;;;;;24.30;12.77;;;6.60;99.90;;;;;;4992605;28;20073;-79
2022/01/27 10:11:51;;;;;;;30.25;14.77;;;6.60;99.90;;;;;;4999874;28;20524;-79
2022/01/27 10:14:25;;;;;;;30.20;12.65;;;6.60;99.90;;;;;;5011319;28;20033;-76
2022/01/27 10:16:54;;;;;;;22.48;12.57;;;6.60;99.90;;;;;;5006202;28;20026;-77
2022/01/27 10:19:21;;;;;;;26.92;13.05;;;6.60;99.90;;;;;;5000676;28;20545;-77
2022/01/27 10:21:47;;;;;;;19.02;11.00;;;6.60;99.90;;;;;;5003152;28;20093;-77
2022/01/27 10:24:20;;;;;;;22.90;13.25;;;6.60;99.90;;;;;;4999977;28;20029;-77
2022/01/27 10:26:53;;;;;;;21.02;11.85;;;6.60;99.90;;;;;;5001720;28;20867;-77
2022/01/27 10:29:37;;;;;;;18.10;10.93;;;6.70;99.90;;;;;;5000296;28;20033;-78
2022/01/27 10:32:08;;;;;;;17.05;9.73;;;6.70;99.90;;;;;;5002973;28;20030;-76
2022/01/27 10:34:54;;;;;;;21.13;11.68;;;6.70;99.90;;;;;;5010674;28;20053;-78
2022/01/27 10:37:20;;;;;;;16.63;10.05;;;6.80;99.90;;;;;;5010200;28;20057;-79
2022/01/27 10:39:47;;;;;;;19.20;10.93;;;6.80;99.90;;;;;;5010947;28;20038;-79
2022/01/27 10:42:16;;;;;;;20.65;11.55;;;6.80;99.90;;;;;;5006502;28;20352;-79
2022/01/27 10:44:46;;;;;;;17.63;10.43;;;6.80;99.90;;;;;;5008929;28;20056;-79
2022/01/27 10:47:21;;;;;;;23.42;11.88;;;6.80;99.90;;;;;;5011371;28;20487;-78
2022/01/27 10:50:04;;;;;;;21.55;11.90;;;6.90;99.90;;;;;;5010660;28;20038;-79
2022/01/27 10:55:00;;;;;;;20.42;11.70;;;6.90;99.90;;;;;;5011745;28;20037;-78
2022/01/27 10:57:26;;;;;;;25.05;13.25;;;6.90;99.90;;;;;;5011146;28;20025;-78
2022/01/27 11:00:11;;;;;;;23.15;11.52;;;6.90;99.90;;;;;;5009984;28;20081;-78
2022/01/27 11:03:08;;;;;;;23.50;13.82;;;7.00;99.90;;;;;;4997860;28;20068;-78
2022/01/27 11:05:41;;;;;;;24.33;12.18;;;7.00;99.90;;;;;;5007389;28;20048;-77
2022/01/27 11:08:07;;;;;;;29.40;13.88;;;7.00;99.90;;;;;;5010580;28;20026;-77
2022/01/27 11:10:35;;;;;;;29.67;14.07;;;7.10;99.90;;;;;;5008648;28;20029;-78
2022/01/27 11:13:00;;;;;;;25.05;12.98;;;7.10;99.90;;;;;;5009627;28;20022;-78
2022/01/27 11:15:26;;;;;;;27.38;13.73;;;7.10;99.90;;;;;;5011447;28;20040;-78
2022/01/27 11:17:54;;;;;;;24.52;14.38;;;7.20;99.90;;;;;;5015172;28;20094;-79
2022/01/27 11:27:48;;;;;;;30.75;14.02;;;7.20;99.90;;;;;;5014795;28;20445;-79
2022/01/27 11:30:19;;;;;;;30.60;14.57;;;7.20;99.90;;;;;;5014601;28;20033;-79
2022/01/27 11:33:06;;;;;;;23.08;13.00;;;7.30;99.90;;;;;;5001821;28;20030;-79
2022/01/27 11:35:31;;;;;;;36.08;14.30;;;7.30;99.90;;;;;;5002515;28;20156;-79
2022/01/27 11:38:04;;;;;;;29.17;13.05;;;7.30;99.90;;;;;;5013788;28;20120;-79
2022/01/27 11:40:43;;;;;;;34.17;13.95;;;7.30;99.90;;;;;;5013917;28;20462;-80
2022/01/27 11:43:10;;;;;;;29.05;12.98;;;7.30;99.90;;;;;;5005887;28;20045;-81
2022/01/27 11:45:47;;;;;;;32.88;13.60;;;7.30;99.90;;;;;;5015100;28;20026;-81
2022/01/27 11:48:29;;;;;;;22.33;11.70;;;7.30;99.90;;;;;;5015059;28;20112;-80
2022/01/27 11:51:11;;;;;;;21.90;11.60;;;7.30;99.90;;;;;;5015051;28;20033;-81
2022/01/27 11:53:51;;;;;;;24.23;11.27;;;7.30;99.90;;;;;;5010779;28;20100;-81
2022/01/27 11:56:30;;;;;;;31.25;12.50;;;7.30;99.90;;;;;;4999858;28;20042;-80
2022/01/27 11:58:57;;;;;;;25.45;12.30;;;7.30;99.90;;;;;;5011268;28;20034;-80
2022/01/27 12:01:23;;;;;;;25.38;12.30;;;7.30;99.90;;;;;;5014621;28;20382;-80
2022/01/27 12:04:11;;;;;;;27.63;11.48;;;7.30;99.90;;;;;;5014364;28;20022;-79
2022/01/27 12:06:39;;;;;;;20.77;11.43;;;7.30;99.90;;;;;;5013588;28;20087;-80
2022/01/27 12:09:17;;;;;;;25.90;12.23;;;7.30;99.90;;;;;;5011545;28;20446;-80
2022/01/27 12:11:48;;;;;;;25.25;10.30;;;7.40;99.90;;;;;;5004626;28;20030;-81
2022/01/27 12:14:15;;;;;;;19.55;11.02;;;7.40;99.90;;;;;;5010657;28;20045;-80
2022/01/27 12:16:54;;;;;;;23.60;10.65;;;7.30;99.90;;;;;;5009043;28;20038;-80
2022/01/27 12:19:20;;;;;;;22.55;9.38;;;7.40;99.90;;;;;;5008908;28;20069;-80
2022/01/27 12:21:51;;;;;;;21.25;10.90;;;7.40;99.90;;;;;;5001842;28;20065;-80
2022/01/27 12:24:27;;;;;;;25.97;11.77;;;7.40;99.90;;;;;;5011001;28;20438;-79
2022/01/27 12:27:06;;;;;;;25.15;10.77;;;7.40;99.90;;;;;;5013155;28;20034;-80
2022/01/27 12:29:45;;;;;;;26.25;11.45;;;7.40;99.90;;;;;;5010706;28;20433;-80
2022/01/27 12:32:22;;;;;;;26.55;11.52;;;7.50;99.90;;;;;;5004742;28;20034;-79
2022/01/27 12:34:53;;;;;;;32.58;12.35;;;7.50;99.90;;;;;;5010568;28;20474;-79
2022/01/27 12:37:22;;;;;;;25.65;12.52;;;7.50;99.90;;;;;;5010496;28;20616;-79
2022/01/27 12:39:56;;;;;;;20.65;10.52;;;7.50;99.90;;;;;;5007040;28;20030;-79
2022/01/27 12:42:33;;;;;;;20.90;11.35;;;7.50;99.90;;;;;;5011517;28;20398;-79
2022/01/27 12:45:06;;;;;;;24.85;11.77;;;7.60;99.90;;;;;;5006909;28;20023;-79
2022/01/27 12:47:36;;;;;;;22.20;11.20;;;7.60;99.90;;;;;;5007491;28;20631;-79
2022/01/27 12:50:23;;;;;;;29.17;12.73;;;7.60;99.90;;;;;;5008980;28;20030;-79
2022/01/27 12:52:53;;;;;;;28.83;11.27;;;7.60;99.90;;;;;;5011791;28;20505;-79
2022/01/27 12:55:21;;;;;;;23.25;12.05;;;7.60;99.90;;;;;;5007243;28;20029;-78
2022/01/27 12:58:02;;;;;;;27.75;12.20;;;7.60;99.90;;;;;;5008687;28;20125;-78
2022/01/27 13:00:30;;;;;;;39.42;13.65;;;7.70;99.90;;;;;;5011329;28;20497;-78
2022/01/27 13:03:00;;;;;;;34.13;11.75;;;7.70;99.90;;;;;;5011093;28;20029;-79
2022/01/27 13:05:34;;;;;;;25.75;10.98;;;7.80;99.90;;;;;;5004410;28;20101;-79
2022/01/27 13:08:02;;;;;;;29.88;12.77;;;7.80;99.90;;;;;;5010581;28;20033;-78
2022/01/27 13:10:27;;;;;;;20.70;11.68;;;7.90;99.90;;;;;;5001516;28;20026;-79
2022/01/27 13:12:56;;;;;;;30.30;11.63;;;8.00;99.90;;;;;;5008495;28;20034;-78
2022/01/27 13:15:25;;;;;;;26.20;11.07;;;8.10;99.90;;;;;;5009529;28;20418;-78
2022/01/27 13:18:01;;;;;;;29.35;12.60;;;8.10;99.90;;;;;;5006941;28;20453;-78
2022/01/27 13:23:03;;;;;;;23.65;10.35;;;8.20;99.90;;;;;;5012698;28;20025;-79
2022/01/27 13:25:44;;;;;;;21.85;9.85;;;8.20;99.90;;;;;;5008973;28;20068;-79
2022/01/27 13:28:18;;;;;;;23.45;10.32;;;8.30;99.90;;;;;;5009398;28;20493;-79
2022/01/27 13:30:45;;;;;;;20.63;10.35;;;8.30;99.90;;;;;;5010152;28;20043;-79
2022/01/27 13:33:19;;;;;;;21.95;10.93;;;8.30;99.90;;;;;;5007397;28;20022;-79
2022/01/27 13:35:45;;;;;;;25.08;9.80;;;8.40;99.90;;;;;;5008258;28;20021;-79